Sunday, November 19, 2017, 3:03 AM GMT
Back to Local

CWTY, Trois Rivieres

Location: , , Canada Lat: 46.35
Local Time: 3:03 AM GMT ( 3:03 GMT) Lon: -72.517
Time Zone: GMT Elev: 19 ft

Show me the last for .
Show Coded

Time T Td Feel RH Dir Speed Gust Alt SLP Vis Weather Sky Remarks
2017-11-19 02:00 33 26 23 74 50° 14 - - 29.49 0 None
2017-11-19 01:00 32 24 22 73 60° 14 - - 29.52 0 Peak wind: 19 mph (17 kts) from 60° at 18 min
2017-11-19 00:00 31 26 20 78 50° 12 18 - 29.55 0 Peak wind: 21 mph (19 kts) from 60° at 05 min
2017-11-18 23:00 31 24 19 73 60° 18 - - 29.57 0 Peak wind: 21 mph (19 kts) from 60° at 54 min
2017-11-18 22:00 29 21 20 73 30° 9 - - 29.60 0 None
2017-11-18 21:00 28 22 20 76 30° 8 - - 29.61 0 None
2017-11-18 20:00 28 22 15 79 40° 10 17 - 29.63 0 Peak wind: 19 mph (17 kts) from 70° at 40 min
Pressure falling rapidly
2017-11-18 19:00 26 20 13 77 30° 8 17 - 29.69 0 Peak wind: 21 mph (19 kts) from 40° at 43 min
2017-11-18 18:00 25 18 16 74 20° 9 - - 29.71 0 None
2017-11-18 17:00 25 19 17 75 30° 8 - - 29.77 0 None
2017-11-18 16:00 25 22 17 88 30° 7 - - 29.81 0 None
2017-11-18 15:00 24 18 16 76 50° 7 - - 29.84 0 None
2017-11-18 14:00 23 17 16 78 70° 6 - - 29.89 0 None
2017-11-18 13:00 22 17 18 80 90° 3 - - 29.93 0 None
2017-11-18 12:00 20 15 16 79 20° 3 - - 29.96 0 None
2017-11-18 11:00 20 15 15 81 20° 3 - - 29.96 0 None
2017-11-18 10:00 20 15 13 80 290° 5 - - 29.98 0 None
2017-11-18 09:00 19 15 - 82 340° 1 - - 29.98 0 None
2017-11-18 08:00 19 15 14 82 20° 3 - - 29.99 0 None
2017-11-18 07:00 20 16 12 82 320° 6 - - 30.01 0 None
2017-11-18 06:00 20 16 13 82 320° 6 - - 30.00 0 None
2017-11-18 05:00 22 19 14 85 320° 7 - - 30.02 0 None
2017-11-18 04:00 23 18 16 80 300° 6 - - 30.03 0 None

Support USWX by starting your Amazon purchase here.